createdAt,value
2023-02-20T00:02:49.747Z,6.22
2023-02-20T00:07:53.290Z,6.28
2023-02-20T00:12:55.811Z,5.05
2023-02-20T00:17:57.993Z,7.85
2023-02-20T00:23:01.522Z,8.45
2023-02-20T00:28:03.715Z,6.07
2023-02-20T00:33:05.997Z,5.43
2023-02-20T00:38:09.513Z,5.72
2023-02-20T00:43:11.689Z,5.03
2023-02-20T00:48:14.078Z,5.50
2023-02-20T00:53:17.661Z,4.53
2023-02-20T00:58:19.818Z,5.20
2023-02-20T01:03:21.971Z,5.80
2023-02-20T01:08:25.467Z,4.85
2023-02-20T01:13:27.691Z,6.05
2023-02-20T01:18:29.944Z,4.88
2023-02-20T01:23:33.465Z,5.15
2023-02-20T01:28:35.641Z,4.53
2023-02-20T01:33:37.793Z,5.93
2023-02-20T01:38:42.945Z,5.60
2023-02-20T01:43:45.104Z,5.28
2023-02-20T01:48:47.243Z,4.80
2023-02-20T01:53:50.873Z,4.93
2023-02-20T01:58:53.441Z,3.30
2023-02-20T02:04:01.664Z,5.38
2023-02-20T02:09:10.683Z,4.78
2023-02-20T02:14:12.826Z,5.45
2023-02-20T02:19:32.315Z,4.30
2023-02-20T02:24:59.662Z,4.25
2023-02-20T02:30:21.731Z,6.53
2023-02-20T02:35:38.329Z,4.75
2023-02-20T02:40:45.126Z,6.65
2023-02-20T02:45:52.877Z,4.45
2023-02-20T02:50:59.345Z,4.20
2023-02-20T02:56:21.620Z,3.97
2023-02-20T03:01:24.580Z,4.03
2023-02-20T03:06:30.724Z,4.40
2023-02-20T03:11:35.682Z,5.18
2023-02-20T03:16:45.590Z,5.82
2023-02-20T03:21:49.837Z,5.47
2023-02-20T03:26:55.049Z,5.47
2023-02-20T03:32:19.613Z,5.88
2023-02-20T03:37:45.525Z,6.03
2023-02-20T03:43:09.581Z,5.80
2023-02-20T03:48:16.762Z,8.82
2023-02-20T03:53:19.060Z,8.63
2023-02-20T03:58:25.806Z,9.00
2023-02-20T04:03:31.981Z,10.38
2023-02-20T04:08:40.449Z,9.57
2023-02-20T04:13:49.633Z,9.40
2023-02-20T04:18:52.263Z,8.93
2023-02-20T04:24:06.072Z,10.75
2023-02-20T04:29:09.755Z,7.43
2023-02-20T04:34:11.993Z,8.32
2023-02-20T04:39:14.113Z,8.30
2023-02-20T04:44:33.760Z,10.20
2023-02-20T04:49:36.175Z,10.35
2023-02-20T04:54:38.289Z,9.65
2023-02-20T04:59:41.976Z,12.57
2023-02-20T05:04:44.165Z,12.82
2023-02-20T05:09:46.350Z,10.00
2023-02-20T05:14:49.851Z,10.25
2023-02-20T05:19:51.952Z,11.95
2023-02-20T05:24:54.192Z,11.43
2023-02-20T05:29:59.945Z,10.73
2023-02-20T05:35:02.112Z,11.65
2023-02-20T05:40:05.886Z,10.02
2023-02-20T05:45:10.227Z,10.52
2023-02-20T05:50:12.365Z,12.13
2023-02-20T05:55:14.503Z,14.95
2023-02-20T06:00:18.940Z,11.75
2023-02-20T06:05:21.502Z,11.15
2023-02-20T06:10:23.882Z,9.95
2023-02-20T06:15:27.427Z,9.45
2023-02-20T06:20:29.541Z,10.25
2023-02-20T06:25:31.663Z,9.30
2023-02-20T06:30:35.470Z,9.95
2023-02-20T06:35:37.634Z,10.52
2023-02-20T06:40:40.510Z,10.55
2023-02-20T06:45:44.158Z,12.98
2023-02-20T06:50:46.292Z,11.75
2023-02-20T06:55:48.458Z,8.93
2023-02-20T07:00:51.969Z,8.35
2023-02-20T07:05:54.322Z,10.60
2023-02-20T07:10:56.595Z,6.65
2023-02-20T07:16:00.135Z,7.53
2023-02-20T07:21:02.393Z,6.18
2023-02-20T07:26:04.708Z,9.38
2023-02-20T07:31:08.246Z,7.40
2023-02-20T07:36:11.079Z,5.93
2023-02-20T07:41:17.427Z,6.47
2023-02-20T07:46:21.063Z,6.10
2023-02-20T07:51:23.293Z,4.82
2023-02-20T07:56:25.912Z,7.18
2023-02-20T08:01:29.628Z,5.68
2023-02-20T08:06:31.777Z,5.70
2023-02-20T08:11:35.801Z,6.63
2023-02-20T08:16:42.600Z,4.95
2023-02-20T08:21:44.797Z,6.22
2023-02-20T08:26:48.291Z,5.97
2023-02-20T08:31:51.928Z,4.75
2023-02-20T08:36:54.106Z,4.15
2023-02-20T08:41:59.230Z,6.10
2023-02-20T08:47:02.790Z,5.65
2023-02-20T08:52:06.056Z,5.65
2023-02-20T08:57:08.232Z,4.95
2023-02-20T09:02:18.702Z,6.55
2023-02-20T09:07:20.823Z,4.70
2023-02-20T09:12:23.064Z,5.93
2023-02-20T09:17:26.658Z,5.50
2023-02-20T09:22:29.281Z,6.45
2023-02-20T09:27:31.741Z,5.47
2023-02-20T09:32:35.683Z,5.80
2023-02-20T09:37:38.183Z,5.10
2023-02-20T09:42:47.630Z,4.60
2023-02-20T09:48:02.185Z,5.55
2023-02-20T09:53:15.878Z,5.60
2023-02-20T09:58:26.509Z,6.47
2023-02-20T10:03:37.501Z,5.40
2023-02-20T10:08:39.629Z,7.18
2023-02-20T10:13:56.798Z,5.72
2023-02-20T10:19:16.354Z,4.70
2023-02-20T10:24:32.987Z,5.82
2023-02-20T10:29:38.380Z,4.40
2023-02-20T10:34:51.284Z,5.28
2023-02-20T10:39:59.376Z,6.45
2023-02-20T10:45:09.686Z,6.45
2023-02-20T10:50:18.193Z,4.00
2023-02-20T10:55:26.506Z,5.20
2023-02-20T11:00:34.776Z,4.45
2023-02-20T11:05:42.696Z,4.93
2023-02-20T11:10:44.961Z,4.22
2023-02-20T11:15:49.281Z,7.30
2023-02-20T11:20:54.032Z,5.72
2023-02-20T11:25:56.589Z,4.63
2023-02-20T11:31:03.559Z,4.55
2023-02-20T11:36:20.957Z,3.95
2023-02-20T11:41:30.633Z,6.03
2023-02-20T11:46:33.229Z,5.00
2023-02-20T11:51:46.856Z,4.30
2023-02-20T11:57:00.449Z,4.72
2023-02-20T12:02:17.311Z,5.70
2023-02-20T12:07:29.118Z,3.85
2023-02-20T12:12:34.091Z,5.00
2023-02-20T12:17:39.695Z,5.28
2023-02-20T12:22:47.644Z,5.88
2023-02-20T12:28:00.565Z,4.72
2023-02-20T12:33:17.755Z,3.35
2023-02-20T12:38:40.446Z,6.28
2023-02-20T12:43:49.678Z,3.50
2023-02-20T12:49:20.556Z,5.47
2023-02-20T12:54:34.294Z,3.88
2023-02-20T12:59:43.687Z,3.70
2023-02-20T13:04:49.581Z,2.85
2023-02-20T13:10:02.986Z,5.20
2023-02-20T13:15:24.208Z,4.65
2023-02-20T13:20:28.798Z,3.20
2023-02-20T13:25:41.957Z,4.57
2023-02-20T13:30:44.190Z,4.30
2023-02-20T13:35:53.601Z,4.45
2023-02-20T13:41:09.295Z,4.50
2023-02-20T13:46:26.004Z,4.22
2023-02-20T13:51:49.246Z,4.05
2023-02-20T13:57:02.688Z,4.05
2023-02-20T14:02:17.611Z,2.70
2023-02-20T14:07:29.378Z,3.40
2023-02-20T14:12:33.866Z,2.28
2023-02-20T14:17:39.676Z,2.65
2023-02-20T14:22:42.049Z,3.92
2023-02-20T14:27:46.161Z,3.75
2023-02-20T14:32:49.845Z,3.65
2023-02-20T14:37:59.474Z,2.55
2023-02-20T14:43:05.073Z,3.17
2023-02-20T14:48:07.632Z,3.50
2023-02-20T14:53:15.773Z,1.77
2023-02-20T14:58:23.446Z,2.25
2023-02-20T15:03:30.933Z,2.80
2023-02-20T15:08:36.098Z,2.60
2023-02-20T15:13:42.877Z,3.00
2023-02-20T15:18:48.924Z,2.25
2023-02-20T15:23:52.440Z,2.55
2023-02-20T15:29:20.335Z,2.30
2023-02-20T15:34:25.165Z,3.45
2023-02-20T15:39:27.710Z,3.10
2023-02-20T15:44:31.187Z,3.67
2023-02-20T15:49:33.570Z,2.40
2023-02-20T15:54:37.086Z,3.50
2023-02-20T15:59:40.978Z,2.92
2023-02-20T16:04:43.678Z,3.85
2023-02-20T16:09:46.402Z,2.60
2023-02-20T16:14:53.952Z,4.03
2023-02-20T16:19:58.712Z,2.78
2023-02-20T16:25:01.206Z,4.07
2023-02-20T16:30:05.928Z,3.60
2023-02-20T16:35:13.140Z,2.40
2023-02-20T16:40:16.924Z,3.42
2023-02-20T16:45:23.339Z,2.20
2023-02-20T16:50:29.326Z,3.08
2023-02-20T16:55:38.617Z,3.65
2023-02-20T17:00:56.565Z,2.78
2023-02-20T17:06:01.856Z,4.00
2023-02-20T17:11:04.409Z,4.03
2023-02-20T17:16:10.059Z,5.30
2023-02-20T17:21:14.374Z,2.72
2023-02-20T17:26:21.406Z,4.97
2023-02-20T17:31:26.135Z,2.30
2023-02-20T17:36:29.459Z,2.75
2023-02-20T17:41:32.769Z,3.65
2023-02-20T17:46:37.816Z,3.58
2023-02-20T17:51:41.175Z,4.32
2023-02-20T17:56:49.968Z,3.22
2023-02-20T18:01:55.027Z,4.82
2023-02-20T18:06:59.444Z,4.13
2023-02-20T18:12:03.248Z,3.25
2023-02-20T18:17:09.286Z,4.15
2023-02-20T18:22:14.678Z,3.40
2023-02-20T18:27:18.826Z,2.65
2023-02-20T18:32:26.598Z,5.88
2023-02-20T18:37:30.388Z,2.35
2023-02-20T18:42:35.688Z,2.67
2023-02-20T18:47:40.980Z,2.55
2023-02-20T18:52:49.219Z,2.90
2023-02-20T18:57:55.420Z,4.00
2023-02-20T19:03:01.998Z,3.78
2023-02-20T19:08:05.571Z,4.80
2023-02-20T19:13:11.969Z,4.00
2023-02-20T19:18:18.219Z,3.35
2023-02-20T19:23:22.010Z,3.92
2023-02-20T19:28:28.548Z,2.53
2023-02-20T19:33:34.152Z,4.20
2023-02-20T19:38:45.373Z,3.33
2023-02-20T19:43:49.961Z,2.75
2023-02-20T19:49:01.719Z,3.22
2023-02-20T19:54:05.772Z,3.03
2023-02-20T19:59:10.765Z,1.63
2023-02-20T20:04:16.249Z,5.22
2023-02-20T20:09:34.960Z,4.18
2023-02-20T20:14:40.073Z,3.03
2023-02-20T20:19:57.953Z,3.25
2023-02-20T20:25:02.061Z,2.53
2023-02-20T20:30:06.168Z,3.60
2023-02-20T20:35:11.167Z,4.05
2023-02-20T20:40:15.556Z,1.92
2023-02-20T20:45:20.226Z,4.30
2023-02-20T20:50:29.450Z,3.13
2023-02-20T20:55:34.535Z,3.45
2023-02-20T21:00:40.016Z,3.40
2023-02-20T21:05:45.610Z,2.97
2023-02-20T21:10:48.676Z,2.90
2023-02-20T21:15:55.443Z,4.03
2023-02-20T21:21:00.153Z,2.42
2023-02-20T21:26:05.820Z,2.22
2023-02-20T21:31:10.089Z,3.25
2023-02-20T21:36:13.983Z,2.65
2023-02-20T21:41:40.539Z,2.70
2023-02-20T21:46:43.433Z,2.85
2023-02-20T21:51:47.201Z,2.75
2023-02-20T21:56:52.180Z,2.97
2023-02-20T22:01:53.928Z,2.90
2023-02-20T22:07:14.734Z,3.55
2023-02-20T22:12:35.732Z,2.83
2023-02-20T22:17:56.113Z,3.60
2023-02-20T22:23:17.321Z,7.30
2023-02-20T22:28:36.826Z,2.38
2023-02-20T22:33:56.335Z,5.90
2023-02-20T22:39:16.997Z,4.45
2023-02-20T22:44:36.765Z,2.80
2023-02-20T22:49:56.272Z,3.83
2023-02-20T22:55:17.196Z,3.15
2023-02-20T23:00:36.628Z,3.00
2023-02-20T23:05:58.685Z,2.13
2023-02-20T23:11:24.780Z,4.00
2023-02-20T23:16:44.271Z,3.53
2023-02-20T23:22:04.296Z,4.47
2023-02-20T23:27:25.228Z,4.55
2023-02-20T23:32:44.913Z,2.45
2023-02-20T23:38:07.677Z,4.05
2023-02-20T23:43:28.583Z,4.55
2023-02-20T23:48:48.938Z,6.32
2023-02-20T23:54:08.587Z,2.97
2023-02-20T23:59:31.060Z,2.47
